TimeEST,TemperatureF,Dew PointF,Humidity,Sea Level PressureIn,VisibilityMPH,Wind Direction,Wind SpeedMPH,Gust SpeedMPH,PrecipitationIn,Events,Conditions,WindDirDegrees,DateUTC
12:51 AM,15.1,1.0,54,29.95,10.0,WNW,8.1,-,N/A,,Clear,300,2013-01-02 05:51:00
1:51 AM,13.1,1.0,59,29.97,10.0,WNW,3.5,-,N/A,,Clear,290,2013-01-02 06:51:00
2:51 AM,9.1,0.1,67,29.97,10.0,Calm,Calm,-,N/A,,Clear,0,2013-01-02 07:51:00
3:51 AM,7.2,0.1,73,29.96,10.0,Calm,Calm,-,N/A,,Clear,0,2013-01-02 08:51:00
4:51 AM,10.0,-0.9,61,29.95,10.0,Calm,Calm,-,N/A,,Clear,0,2013-01-02 09:51:00
5:51 AM,5.0,-1.8,73,29.95,10.0,NNW,3.5,-,N/A,,Clear,330,2013-01-02 10:51:00
6:51 AM,7.2,1.0,76,29.94,10.0,South,3.5,-,N/A,,Clear,190,2013-01-02 11:51:00
7:51 AM,14.0,3.0,62,29.94,10.0,West,6.9,16.1,N/A,,Overcast,260,2013-01-02 12:51:00
8:51 AM,18.1,5.0,57,29.94,10.0,West,8.1,-,N/A,,Overcast,280,2013-01-02 13:51:00
9:51 AM,20.1,7.2,57,29.95,10.0,West,16.1,33.4,N/A,,Mostly Cloudy,270,2013-01-02 14:51:00
10:51 AM,23.0,9.1,55,29.94,10.0,West,18.4,29.9,N/A,,Mostly Cloudy,280,2013-01-02 15:51:00
11:51 AM,26.1,10.0,51,29.92,10.0,West,13.8,26.5,N/A,,Partly Cloudy,270,2013-01-02 16:51:00
12:39 PM,26.6,12.2,55,29.89,10.0,WNW,17.3,24.2,N/A,,Mostly Cloudy,300,2013-01-02 17:39:00
12:51 PM,26.1,12.0,55,29.92,10.0,WNW,17.3,24.2,N/A,,Partly Cloudy,300,2013-01-02 17:51:00
1:51 PM,24.1,17.1,75,29.94,2.5,WNW,11.5,-,0.00,Snow,Light Snow,290,2013-01-02 18:51:00
2:17 PM,24.8,17.6,74,29.93,10.0,North,-9999.0,-,0.00,Snow,Light Snow,0,2013-01-02 19:17:00
2:51 PM,25.2,14.0,63,29.96,10.0,North,-9999.0,-,0.00,Snow,Light Snow,0,2013-01-02 19:51:00
3:51 PM,24.1,9.1,53,29.99,10.0,North,-9999.0,-,N/A,,Clear,0,2013-01-02 20:51:00
4:51 PM,23.0,5.0,46,30.03,10.0,North,-9999.0,-,N/A,,Clear,0,2013-01-02 21:51:00
5:51 PM,21.0,5.0,50,30.04,10.0,North,-9999.0,-,N/A,,Clear,0,2013-01-02 22:51:00
6:51 PM,18.1,5.0,57,30.07,10.0,North,-9999.0,-,N/A,,Clear,0,2013-01-02 23:51:00
7:51 PM,16.2,2.1,54,30.08,10.0,North,-9999.0,-,N/A,,Clear,0,2013-01-03 00:51:00
8:51 PM,12.0,-0.9,56,30.12,10.0,North,-9999.0,-,N/A,,Clear,0,2013-01-03 01:51:00
9:51 PM,10.0,-2.9,56,30.12,10.0,North,-9999.0,-,N/A,,Squalls,0,2013-01-03 02:51:00
10:51 PM,9.1,-6.9,48,30.13,10.0,North,-9999.0,-,N/A,,Clear,0,2013-01-03 03:51:00
11:51 PM,7.2,-8.9,48,30.13,10.0,North,-9999.0,-,N/A,,Clear,0,2013-01-03 04:51:00